sensor_id;sensor_type;location;lat;lon;timestamp;P1;P2;P0
73825;PMS5003;64145;55.060;73.168;2022-11-15T00:01:00;0.00;0.00;0.00
73825;PMS5003;64145;55.060;73.168;2022-11-15T00:03:27;0.00;0.00;0.00
73825;PMS5003;64145;55.060;73.168;2022-11-15T00:05:52;0.00;0.00;0.00
73825;PMS5003;64145;55.060;73.168;2022-11-15T00:08:18;0.00;0.00;0.00
73825;PMS5003;64145;55.060;73.168;2022-11-15T00:10:54;0.00;0.00;0.00
73825;PMS5003;64145;55.060;73.168;2022-11-15T00:13:30;0.00;0.00;0.00
73825;PMS5003;64145;55.060;73.168;2022-11-15T00:15:59;0.00;0.00;0.00
73825;PMS5003;64145;55.060;73.168;2022-11-15T00:18:30;0.00;0.00;0.00
73825;PMS5003;64145;55.060;73.168;2022-11-15T00:20:56;0.00;0.00;0.00
73825;PMS5003;64145;55.060;73.168;2022-11-15T00:23:25;0.00;0.00;0.00
73825;PMS5003;64145;55.060;73.168;2022-11-15T00:25:57;0.00;0.00;0.00
73825;PMS5003;64145;55.060;73.168;2022-11-15T00:28:32;0.00;0.00;0.00
73825;PMS5003;64145;55.060;73.168;2022-11-15T00:31:05;0.00;0.00;0.00
73825;PMS5003;64145;55.060;73.168;2022-11-15T00:33:31;0.00;0.00;0.00
73825;PMS5003;64145;55.060;73.168;2022-11-15T00:36:04;0.00;0.00;0.00
73825;PMS5003;64145;55.060;73.168;2022-11-15T00:38:30;0.00;0.00;0.00
73825;PMS5003;64145;55.060;73.168;2022-11-15T00:41:02;0.00;0.00;0.00
73825;PMS5003;64145;55.060;73.168;2022-11-15T00:43:28;0.00;0.00;0.00
73825;PMS5003;64145;55.060;73.168;2022-11-15T00:45:53;0.00;0.00;0.00
73825;PMS5003;64145;55.060;73.168;2022-11-15T00:48:29;0.00;0.00;0.00
73825;PMS5003;64145;55.060;73.168;2022-11-15T00:50:55;0.00;0.00;0.00
73825;PMS5003;64145;55.060;73.168;2022-11-15T00:53:20;0.00;0.00;0.00
73825;PMS5003;64145;55.060;73.168;2022-11-15T00:55:46;0.00;0.00;0.00
73825;PMS5003;64145;55.060;73.168;2022-11-15T00:58:11;0.00;0.00;0.00
73825;PMS5003;64145;55.060;73.168;2022-11-15T01:00:37;0.00;0.00;0.00
73825;PMS5003;64145;55.060;73.168;2022-11-15T01:03:02;0.00;0.00;0.00
73825;PMS5003;64145;55.060;73.168;2022-11-15T01:05:38;0.00;0.00;0.00
73825;PMS5003;64145;55.060;73.168;2022-11-15T01:08:04;0.00;0.00;0.00
73825;PMS5003;64145;55.060;73.168;2022-11-15T01:10:29;0.00;0.00;0.00
73825;PMS5003;64145;55.060;73.168;2022-11-15T01:12:55;0.00;0.00;0.00
73825;PMS5003;64145;55.060;73.168;2022-11-15T01:15:20;0.00;0.00;0.00
73825;PMS5003;64145;55.060;73.168;2022-11-15T01:17:46;0.00;0.00;0.00
73825;PMS5003;64145;55.060;73.168;2022-11-15T01:20:16;0.00;0.00;0.00
73825;PMS5003;64145;55.060;73.168;2022-11-15T01:22:52;0.00;0.00;0.00
73825;PMS5003;64145;55.060;73.168;2022-11-15T01:25:18;0.00;0.00;0.00
73825;PMS5003;64145;55.060;73.168;2022-11-15T01:27:43;0.00;0.00;0.00
73825;PMS5003;64145;55.060;73.168;2022-11-15T01:30:19;0.00;0.00;0.00
73825;PMS5003;64145;55.060;73.168;2022-11-15T01:32:55;0.00;0.00;0.00
73825;PMS5003;64145;55.060;73.168;2022-11-15T01:35:20;0.00;0.00;0.00
73825;PMS5003;64145;55.060;73.168;2022-11-15T01:37:46;0.00;0.00;0.00
73825;PMS5003;64145;55.060;73.168;2022-11-15T01:40:11;0.00;0.00;0.00
73825;PMS5003;64145;55.060;73.168;2022-11-15T01:42:37;0.00;0.00;0.00
73825;PMS5003;64145;55.060;73.168;2022-11-15T01:45:13;0.00;0.00;0.00
73825;PMS5003;64145;55.060;73.168;2022-11-15T01:47:40;0.00;0.00;0.00
73825;PMS5003;64145;55.060;73.168;2022-11-15T01:50:15;0.00;0.00;0.00
73825;PMS5003;64145;55.060;73.168;2022-11-15T01:52:42;0.00;0.00;0.00
73825;PMS5003;64145;55.060;73.168;2022-11-15T01:55:13;0.00;0.00;0.00
73825;PMS5003;64145;55.060;73.168;2022-11-15T01:57:50;0.00;0.00;0.00
73825;PMS5003;64145;55.060;73.168;2022-11-15T02:00:17;0.00;0.00;0.00
73825;PMS5003;64145;55.060;73.168;2022-11-15T02:02:48;0.00;0.00;0.00
73825;PMS5003;64145;55.060;73.168;2022-11-15T02:05:14;0.00;0.00;0.00
73825;PMS5003;64145;55.060;73.168;2022-11-15T02:07:40;0.00;0.00;0.00
73825;PMS5003;64145;55.060;73.168;2022-11-15T02:10:19;0.00;0.00;0.00
73825;PMS5003;64145;55.060;73.168;2022-11-15T02:12:46;0.00;0.00;0.00
73825;PMS5003;64145;55.060;73.168;2022-11-15T02:15:24;0.00;0.00;0.00
73825;PMS5003;64145;55.060;73.168;2022-11-15T02:18:10;0.00;0.00;0.00
73825;PMS5003;64145;55.060;73.168;2022-11-15T02:28:37;0.25;0.00;0.00
73825;PMS5003;64145;55.060;73.168;2022-11-15T02:36:53;1.75;0.75;0.00
73825;PMS5003;64145;55.060;73.168;2022-11-15T02:39:00;0.00;0.00;0.00
73825;PMS5003;64145;55.060;73.168;2022-11-15T02:41:36;1.00;0.00;0.00
73825;PMS5003;64145;55.060;73.168;2022-11-15T02:44:07;1.00;1.00;0.00
73825;PMS5003;64145;55.060;73.168;2022-11-15T02:49:28;1.00;0.00;0.00
73825;PMS5003;64145;55.060;73.168;2022-11-15T02:51:54;0.00;0.00;0.00
73825;PMS5003;64145;55.060;73.168;2022-11-15T02:54:21;1.75;0.00;0.00
73825;PMS5003;64145;55.060;73.168;2022-11-15T02:57:00;0.00;0.00;0.00
73825;PMS5003;64145;55.060;73.168;2022-11-15T03:07:25;0.75;0.25;0.00
73825;PMS5003;64145;55.060;73.168;2022-11-15T03:10:05;0.00;0.00;0.00
73825;PMS5003;64145;55.060;73.168;2022-11-15T03:12:41;0.00;0.00;0.00
73825;PMS5003;64145;55.060;73.168;2022-11-15T03:18:02;0.00;0.00;0.00
73825;PMS5003;64145;55.060;73.168;2022-11-15T03:20:40;0.00;0.00;0.00
73825;PMS5003;64145;55.060;73.168;2022-11-15T03:23:06;0.00;0.00;0.00
73825;PMS5003;64145;55.060;73.168;2022-11-15T03:25:33;0.00;0.00;0.00
73825;PMS5003;64145;55.060;73.168;2022-11-15T03:28:01;0.00;0.00;0.00
73825;PMS5003;64145;55.060;73.168;2022-11-15T03:30:29;0.00;0.00;0.00
73825;PMS5003;64145;55.060;73.168;2022-11-15T03:32:56;0.00;0.00;0.00
73825;PMS5003;64145;55.060;73.168;2022-11-15T03:35:33;0.00;0.00;0.00
73825;PMS5003;64145;55.060;73.168;2022-11-15T03:38:04;0.00;0.00;0.00
73825;PMS5003;64145;55.060;73.168;2022-11-15T03:40:36;1.00;1.00;0.00
73825;PMS5003;64145;55.060;73.168;2022-11-15T03:43:10;0.50;0.50;0.00
73825;PMS5003;64145;55.060;73.168;2022-11-15T03:45:44;0.00;0.00;0.00
73825;PMS5003;64145;55.060;73.168;2022-11-15T03:48:18;1.00;0.00;0.00
73825;PMS5003;64145;55.060;73.168;2022-11-15T03:50:45;1.25;0.25;0.00
73825;PMS5003;64145;55.060;73.168;2022-11-15T03:53:16;0.00;0.00;0.00
73825;PMS5003;64145;55.060;73.168;2022-11-15T03:55:42;0.00;0.00;0.00
73825;PMS5003;64145;55.060;73.168;2022-11-15T03:58:12;0.00;0.00;0.00
73825;PMS5003;64145;55.060;73.168;2022-11-15T04:00:38;0.00;0.00;0.00
73825;PMS5003;64145;55.060;73.168;2022-11-15T04:03:03;0.00;0.00;0.00
73825;PMS5003;64145;55.060;73.168;2022-11-15T04:05:29;0.00;0.00;0.00
73825;PMS5003;64145;55.060;73.168;2022-11-15T04:07:55;0.00;0.00;0.00
73825;PMS5003;64145;55.060;73.168;2022-11-15T04:10:20;0.00;0.00;0.00
73825;PMS5003;64145;55.060;73.168;2022-11-15T04:12:47;0.00;0.00;0.00
73825;PMS5003;64145;55.060;73.168;2022-11-15T04:15:14;0.00;0.00;0.00
73825;PMS5003;64145;55.060;73.168;2022-11-15T04:20:18;0.00;0.00;0.00
73825;PMS5003;64145;55.060;73.168;2022-11-15T04:23:14;0.00;0.00;0.00
73825;PMS5003;64145;55.060;73.168;2022-11-15T04:25:59;0.00;0.00;0.00
73825;PMS5003;64145;55.060;73.168;2022-11-15T04:28:30;0.00;0.00;0.00
73825;PMS5003;64145;55.060;73.168;2022-11-15T04:31:00;0.00;0.00;0.00
73825;PMS5003;64145;55.060;73.168;2022-11-15T04:33:26;0.00;0.00;0.00
73825;PMS5003;64145;55.060;73.168;2022-11-15T04:35:51;1.00;0.00;0.00
73825;PMS5003;64145;55.060;73.168;2022-11-15T04:38:45;0.00;0.00;0.00
73825;PMS5003;64145;55.060;73.168;2022-11-15T04:41:10;0.33;0.00;0.00
73825;PMS5003;64145;55.060;73.168;2022-11-15T04:43:36;0.00;0.00;0.00
73825;PMS5003;64145;55.060;73.168;2022-11-15T04:46:01;0.00;0.00;0.00
73825;PMS5003;64145;55.060;73.168;2022-11-15T04:48:27;0.67;0.00;0.00
73825;PMS5003;64145;55.060;73.168;2022-11-15T04:51:02;0.00;0.00;0.00
73825;PMS5003;64145;55.060;73.168;2022-11-15T04:53:28;0.00;0.00;0.00
73825;PMS5003;64145;55.060;73.168;2022-11-15T04:55:53;0.00;0.00;0.00
73825;PMS5003;64145;55.060;73.168;2022-11-15T04:58:19;0.00;0.00;0.00
73825;PMS5003;64145;55.060;73.168;2022-11-15T05:00:44;0.00;0.00;0.00
73825;PMS5003;64145;55.060;73.168;2022-11-15T05:03:15;0.00;0.00;0.00
73825;PMS5003;64145;55.060;73.168;2022-11-15T05:05:59;0.00;0.00;0.00
73825;PMS5003;64145;55.060;73.168;2022-11-15T05:08:25;0.00;0.00;0.00
73825;PMS5003;64145;55.060;73.168;2022-11-15T05:10:50;1.00;1.00;0.00
73825;PMS5003;64145;55.060;73.168;2022-11-15T05:13:26;1.00;1.00;0.00
73825;PMS5003;64145;55.060;73.168;2022-11-15T05:15:51;0.00;0.00;0.00
73825;PMS5003;64145;55.060;73.168;2022-11-15T05:18:18;2.00;1.00;0.00
73825;PMS5003;64145;55.060;73.168;2022-11-15T05:20:43;1.00;1.00;0.00
73825;PMS5003;64145;55.060;73.168;2022-11-15T05:23:09;0.00;0.00;0.00
73825;PMS5003;64145;55.060;73.168;2022-11-15T05:25:35;1.00;1.00;0.00
73825;PMS5003;64145;55.060;73.168;2022-11-15T05:28:01;0.00;0.00;0.00
73825;PMS5003;64145;55.060;73.168;2022-11-15T05:30:26;0.00;0.00;0.00
73825;PMS5003;64145;55.060;73.168;2022-11-15T05:32:52;0.00;0.00;0.00
73825;PMS5003;64145;55.060;73.168;2022-11-15T05:35:30;0.00;0.00;0.00
73825;PMS5003;64145;55.060;73.168;2022-11-15T05:38:02;0.00;0.00;0.00
73825;PMS5003;64145;55.060;73.168;2022-11-15T05:40:28;0.00;0.00;0.00
73825;PMS5003;64145;55.060;73.168;2022-11-15T05:42:54;0.00;0.00;0.00
73825;PMS5003;64145;55.060;73.168;2022-11-15T05:45:20;0.00;0.00;0.00
73825;PMS5003;64145;55.060;73.168;2022-11-15T05:47:45;0.00;0.00;0.00
73825;PMS5003;64145;55.060;73.168;2022-11-15T05:50:12;0.00;0.00;0.00
73825;PMS5003;64145;55.060;73.168;2022-11-15T05:52:40;0.00;0.00;0.00
73825;PMS5003;64145;55.060;73.168;2022-11-15T05:55:06;0.00;0.00;0.00
73825;PMS5003;64145;55.060;73.168;2022-11-15T05:57:37;0.00;0.00;0.00
73825;PMS5003;64145;55.060;73.168;2022-11-15T06:00:03;0.00;0.00;0.00
73825;PMS5003;64145;55.060;73.168;2022-11-15T06:02:29;0.00;0.00;0.00
73825;PMS5003;64145;55.060;73.168;2022-11-15T06:04:55;0.00;0.00;0.00
73825;PMS5003;64145;55.060;73.168;2022-11-15T06:07:21;0.00;0.00;0.00
73825;PMS5003;64145;55.060;73.168;2022-11-15T06:09:46;0.00;0.00;0.00
73825;PMS5003;64145;55.060;73.168;2022-11-15T06:12:12;1.00;0.00;0.00
73825;PMS5003;64145;55.060;73.168;2022-11-15T06:14:37;0.00;0.00;0.00
73825;PMS5003;64145;55.060;73.168;2022-11-15T06:17:03;0.00;0.00;0.00
73825;PMS5003;64145;55.060;73.168;2022-11-15T06:19:28;0.00;0.00;0.00
73825;PMS5003;64145;55.060;73.168;2022-11-15T06:22:02;0.00;0.00;0.00
73825;PMS5003;64145;55.060;73.168;2022-11-15T06:24:28;0.00;0.00;0.00
73825;PMS5003;64145;55.060;73.168;2022-11-15T06:26:53;0.00;0.00;0.00
73825;PMS5003;64145;55.060;73.168;2022-11-15T06:29:19;0.00;0.00;0.00
73825;PMS5003;64145;55.060;73.168;2022-11-15T06:31:55;0.00;0.00;0.00
73825;PMS5003;64145;55.060;73.168;2022-11-15T06:34:20;0.00;0.00;0.00
73825;PMS5003;64145;55.060;73.168;2022-11-15T06:36:51;0.00;0.00;0.00
73825;PMS5003;64145;55.060;73.168;2022-11-15T06:39:21;0.00;0.00;0.00
73825;PMS5003;64145;55.060;73.168;2022-11-15T06:41:57;0.00;0.00;0.00
73825;PMS5003;64145;55.060;73.168;2022-11-15T06:44:23;0.00;0.00;0.00
73825;PMS5003;64145;55.060;73.168;2022-11-15T06:46:54;0.00;0.00;0.00
73825;PMS5003;64145;55.060;73.168;2022-11-15T06:49:19;0.00;0.00;0.00
73825;PMS5003;64145;55.060;73.168;2022-11-15T06:51:55;0.00;0.00;0.00
73825;PMS5003;64145;55.060;73.168;2022-11-15T06:54:20;0.00;0.00;0.00
73825;PMS5003;64145;55.060;73.168;2022-11-15T06:56:46;0.00;0.00;0.00
73825;PMS5003;64145;55.060;73.168;2022-11-15T06:59:17;0.00;0.00;0.00
73825;PMS5003;64145;55.060;73.168;2022-11-15T07:01:42;0.00;0.00;0.00
73825;PMS5003;64145;55.060;73.168;2022-11-15T07:04:08;0.00;0.00;0.00
73825;PMS5003;64145;55.060;73.168;2022-11-15T07:06:33;0.00;0.00;0.00
73825;PMS5003;64145;55.060;73.168;2022-11-15T07:08:59;0.00;0.00;0.00
73825;PMS5003;64145;55.060;73.168;2022-11-15T07:11:24;0.00;0.00;0.00
73825;PMS5003;64145;55.060;73.168;2022-11-15T07:13:50;0.00;0.00;0.00
73825;PMS5003;64145;55.060;73.168;2022-11-15T07:16:15;0.00;0.00;0.00
73825;PMS5003;64145;55.060;73.168;2022-11-15T07:18:41;0.00;0.00;0.00
73825;PMS5003;64145;55.060;73.168;2022-11-15T07:21:09;0.00;0.00;0.00
73825;PMS5003;64145;55.060;73.168;2022-11-15T07:23:36;0.00;0.00;0.00
73825;PMS5003;64145;55.060;73.168;2022-11-15T07:26:03;0.00;0.00;0.00
73825;PMS5003;64145;55.060;73.168;2022-11-15T07:28:28;0.00;0.00;0.00
73825;PMS5003;64145;55.060;73.168;2022-11-15T07:31:04;0.00;0.00;0.00
73825;PMS5003;64145;55.060;73.168;2022-11-15T07:33:31;0.00;0.00;0.00
73825;PMS5003;64145;55.060;73.168;2022-11-15T07:36:00;0.00;0.00;0.00
73825;PMS5003;64145;55.060;73.168;2022-11-15T07:38:27;0.00;0.00;0.00
73825;PMS5003;64145;55.060;73.168;2022-11-15T07:41:00;0.00;0.00;0.00
73825;PMS5003;64145;55.060;73.168;2022-11-15T07:43:25;0.00;0.00;0.00
73825;PMS5003;64145;55.060;73.168;2022-11-15T07:45:52;0.00;0.00;0.00
73825;PMS5003;64145;55.060;73.168;2022-11-15T07:48:18;0.00;0.00;0.00
73825;PMS5003;64145;55.060;73.168;2022-11-15T07:50:44;0.00;0.00;0.00
73825;PMS5003;64145;55.060;73.168;2022-11-15T07:53:13;0.00;0.00;0.00
73825;PMS5003;64145;55.060;73.168;2022-11-15T07:55:48;0.00;0.00;0.00
73825;PMS5003;64145;55.060;73.168;2022-11-15T07:58:14;0.00;0.00;0.00
73825;PMS5003;64145;55.060;73.168;2022-11-15T08:00:44;0.00;0.00;0.00
73825;PMS5003;64145;55.060;73.168;2022-11-15T08:03:11;0.00;0.00;0.00
73825;PMS5003;64145;55.060;73.168;2022-11-15T08:05:37;0.00;0.00;0.00
73825;PMS5003;64145;55.060;73.168;2022-11-15T08:08:13;0.00;0.00;0.00
73825;PMS5003;64145;55.060;73.168;2022-11-15T08:10:38;0.00;0.00;0.00
73825;PMS5003;64145;55.060;73.168;2022-11-15T08:13:14;0.00;0.00;0.00
73825;PMS5003;64145;55.060;73.168;2022-11-15T08:15:40;0.00;0.00;0.00
73825;PMS5003;64145;55.060;73.168;2022-11-15T08:18:09;0.00;0.00;0.00
73825;PMS5003;64145;55.060;73.168;2022-11-15T08:20:35;0.00;0.00;0.00
73825;PMS5003;64145;55.060;73.168;2022-11-15T08:23:01;0.00;0.00;0.00
73825;PMS5003;64145;55.060;73.168;2022-11-15T08:25:28;0.00;0.00;0.00
73825;PMS5003;64145;55.060;73.168;2022-11-15T08:27:54;0.00;0.00;0.00
73825;PMS5003;64145;55.060;73.168;2022-11-15T08:30:20;0.00;0.00;0.00
73825;PMS5003;64145;55.060;73.168;2022-11-15T08:32:47;0.00;0.00;0.00
73825;PMS5003;64145;55.060;73.168;2022-11-15T08:35:12;0.00;0.00;0.00
73825;PMS5003;64145;55.060;73.168;2022-11-15T08:37:38;0.00;0.00;0.00
73825;PMS5003;64145;55.060;73.168;2022-11-15T08:40:04;0.00;0.00;0.00
73825;PMS5003;64145;55.060;73.168;2022-11-15T08:42:29;0.00;0.00;0.00
73825;PMS5003;64145;55.060;73.168;2022-11-15T08:44:55;0.00;0.00;0.00
73825;PMS5003;64145;55.060;73.168;2022-11-15T08:47:30;0.00;0.00;0.00
73825;PMS5003;64145;55.060;73.168;2022-11-15T08:50:00;0.00;0.00;0.00
73825;PMS5003;64145;55.060;73.168;2022-11-15T08:52:26;0.00;0.00;0.00
73825;PMS5003;64145;55.060;73.168;2022-11-15T08:54:51;7.33;6.00;3.67
73825;PMS5003;64145;55.060;73.168;2022-11-15T08:57:17;3.67;3.00;0.00
73825;PMS5003;64145;55.060;73.168;2022-11-15T08:59:52;0.00;0.00;0.00
73825;PMS5003;64145;55.060;73.168;2022-11-15T09:02:18;0.00;0.00;0.00
73825;PMS5003;64145;55.060;73.168;2022-11-15T09:04:43;0.00;0.00;0.00
73825;PMS5003;64145;55.060;73.168;2022-11-15T09:07:10;0.00;0.00;0.00
73825;PMS5003;64145;55.060;73.168;2022-11-15T09:09:40;0.00;0.00;0.00
73825;PMS5003;64145;55.060;73.168;2022-11-15T09:12:10;0.00;0.00;0.00
73825;PMS5003;64145;55.060;73.168;2022-11-15T09:14:47;0.00;0.00;0.00
73825;PMS5003;64145;55.060;73.168;2022-11-15T09:17:17;0.00;0.00;0.00
73825;PMS5003;64145;55.060;73.168;2022-11-15T09:19:43;0.00;0.00;0.00
73825;PMS5003;64145;55.060;73.168;2022-11-15T09:22:08;0.00;0.00;0.00
73825;PMS5003;64145;55.060;73.168;2022-11-15T09:24:34;0.00;0.00;0.00
73825;PMS5003;64145;55.060;73.168;2022-11-15T09:27:08;0.00;0.00;0.00
73825;PMS5003;64145;55.060;73.168;2022-11-15T09:29:34;0.00;0.00;0.00
73825;PMS5003;64145;55.060;73.168;2022-11-15T09:32:00;2.00;2.00;0.00
73825;PMS5003;64145;55.060;73.168;2022-11-15T09:34:25;0.33;0.33;0.00
73825;PMS5003;64145;55.060;73.168;2022-11-15T09:36:56;0.00;0.00;0.00
73825;PMS5003;64145;55.060;73.168;2022-11-15T09:39:31;0.00;0.00;0.00
73825;PMS5003;64145;55.060;73.168;2022-11-15T09:49:52;0.00;0.00;0.00
73825;PMS5003;64145;55.060;73.168;2022-11-15T09:52:20;0.00;0.00;0.00
73825;PMS5003;64145;55.060;73.168;2022-11-15T09:54:49;0.00;0.00;0.00
73825;PMS5003;64145;55.060;73.168;2022-11-15T09:59:53;0.00;0.00;0.00
73825;PMS5003;64145;55.060;73.168;2022-11-15T10:05:20;0.00;0.00;0.00
73825;PMS5003;64145;55.060;73.168;2022-11-15T10:10:37;0.00;0.00;0.00
73825;PMS5003;64145;55.060;73.168;2022-11-15T10:13:06;0.00;0.00;0.00
73825;PMS5003;64145;55.060;73.168;2022-11-15T10:15:33;0.00;0.00;0.00
73825;PMS5003;64145;55.060;73.168;2022-11-15T10:20:54;0.00;0.00;0.00
73825;PMS5003;64145;55.060;73.168;2022-11-15T10:23:22;0.00;0.00;0.00
73825;PMS5003;64145;55.060;73.168;2022-11-15T10:25:50;0.00;0.00;0.00
73825;PMS5003;64145;55.060;73.168;2022-11-15T10:28:17;0.00;0.00;0.00
73825;PMS5003;64145;55.060;73.168;2022-11-15T10:31:00;0.00;0.00;0.00
73825;PMS5003;64145;55.060;73.168;2022-11-15T10:33:34;0.00;0.00;0.00
73825;PMS5003;64145;55.060;73.168;2022-11-15T10:36:21;0.00;0.00;0.00
73825;PMS5003;64145;55.060;73.168;2022-11-15T10:44:08;0.00;0.00;0.00
73825;PMS5003;64145;55.060;73.168;2022-11-15T10:46:35;0.00;0.00;0.00
73825;PMS5003;64145;55.060;73.168;2022-11-15T10:49:18;0.00;0.00;0.00
73825;PMS5003;64145;55.060;73.168;2022-11-15T10:51:53;0.00;0.00;0.00
73825;PMS5003;64145;55.060;73.168;2022-11-15T10:54:23;0.00;0.00;0.00
73825;PMS5003;64145;55.060;73.168;2022-11-15T10:56:50;0.00;0.00;0.00
73825;PMS5003;64145;55.060;73.168;2022-11-15T10:59:29;0.00;0.00;0.00
73825;PMS5003;64145;55.060;73.168;2022-11-15T11:01:56;0.00;0.00;0.00
73825;PMS5003;64145;55.060;73.168;2022-11-15T11:04:22;0.00;0.00;0.00
73825;PMS5003;64145;55.060;73.168;2022-11-15T11:06:54;0.00;0.00;0.00
73825;PMS5003;64145;55.060;73.168;2022-11-15T11:09:37;0.00;0.00;0.00
73825;PMS5003;64145;55.060;73.168;2022-11-15T11:12:05;0.00;0.00;0.00
73825;PMS5003;64145;55.060;73.168;2022-11-15T11:14:31;0.00;0.00;0.00
73825;PMS5003;64145;55.060;73.168;2022-11-15T11:19:49;0.00;0.00;0.00
73825;PMS5003;64145;55.060;73.168;2022-11-15T11:22:30;0.00;0.00;0.00
73825;PMS5003;64145;55.060;73.168;2022-11-15T11:40:30;0.00;0.00;0.00
73825;PMS5003;64145;55.060;73.168;2022-11-15T11:48:10;0.00;0.00;0.00
73825;PMS5003;64145;55.060;73.168;2022-11-15T11:50:37;0.00;0.00;0.00
73825;PMS5003;64145;55.060;73.168;2022-11-15T11:55:54;0.00;0.00;0.00
73825;PMS5003;64145;55.060;73.168;2022-11-15T11:58:41;0.00;0.00;0.00
73825;PMS5003;64145;55.060;73.168;2022-11-15T12:01:11;0.00;0.00;0.00
73825;PMS5003;64145;55.060;73.168;2022-11-15T12:03:40;0.00;0.00;0.00
73825;PMS5003;64145;55.060;73.168;2022-11-15T12:06:50;0.00;0.00;0.00
73825;PMS5003;64145;55.060;73.168;2022-11-15T12:09:16;0.75;0.00;0.00
73825;PMS5003;64145;55.060;73.168;2022-11-15T12:11:50;0.00;0.00;0.00
73825;PMS5003;64145;55.060;73.168;2022-11-15T12:15:03;0.00;0.00;0.00
73825;PMS5003;64145;55.060;73.168;2022-11-15T12:17:02;0.00;0.00;0.00
73825;PMS5003;64145;55.060;73.168;2022-11-15T12:19:29;0.00;0.00;0.00
73825;PMS5003;64145;55.060;73.168;2022-11-15T12:24:22;0.00;0.00;0.00
73825;PMS5003;64145;55.060;73.168;2022-11-15T12:26:55;1.00;0.00;0.00
73825;PMS5003;64145;55.060;73.168;2022-11-15T12:29:37;1.00;0.00;0.00
73825;PMS5003;64145;55.060;73.168;2022-11-15T12:32:04;3.00;2.75;0.00
73825;PMS5003;64145;55.060;73.168;2022-11-15T12:34:51;4.00;4.00;0.00
73825;PMS5003;64145;55.060;73.168;2022-11-15T12:40:18;3.00;2.00;0.00
73825;PMS5003;64145;55.060;73.168;2022-11-15T12:43:02;1.00;0.00;0.00
73825;PMS5003;64145;55.060;73.168;2022-11-15T12:45:35;0.50;0.25;0.00
73825;PMS5003;64145;55.060;73.168;2022-11-15T13:04:38;7.00;5.00;4.00
73825;PMS5003;64145;55.060;73.168;2022-11-15T13:06:45;5.75;4.75;2.00
73825;PMS5003;64145;55.060;73.168;2022-11-15T13:11:56;13.50;12.00;5.75
73825;PMS5003;64145;55.060;73.168;2022-11-15T13:17:43;6.75;3.50;0.50
73825;PMS5003;64145;55.060;73.168;2022-11-15T13:20:11;6.75;6.00;0.75
73825;PMS5003;64145;55.060;73.168;2022-11-15T13:22:45;9.75;9.50;4.00
73825;PMS5003;64145;55.060;73.168;2022-11-15T13:30:54;3.50;1.25;0.25
73825;PMS5003;64145;55.060;73.168;2022-11-15T13:33:22;0.00;0.00;0.00
73825;PMS5003;64145;55.060;73.168;2022-11-15T13:35:57;0.00;0.00;0.00
73825;PMS5003;64145;55.060;73.168;2022-11-15T13:38:29;0.00;0.00;0.00
73825;PMS5003;64145;55.060;73.168;2022-11-15T13:41:10;0.00;0.00;0.00
73825;PMS5003;64145;55.060;73.168;2022-11-15T13:43:36;0.00;0.00;0.00
73825;PMS5003;64145;55.060;73.168;2022-11-15T13:48:50;0.00;0.00;0.00
73825;PMS5003;64145;55.060;73.168;2022-11-15T13:53:42;0.00;0.00;0.00
73825;PMS5003;64145;55.060;73.168;2022-11-15T13:56:17;0.00;0.00;0.00
73825;PMS5003;64145;55.060;73.168;2022-11-15T13:58:44;0.00;0.00;0.00
73825;PMS5003;64145;55.060;73.168;2022-11-15T14:01:18;0.00;0.00;0.00
73825;PMS5003;64145;55.060;73.168;2022-11-15T14:03:53;0.00;0.00;0.00
73825;PMS5003;64145;55.060;73.168;2022-11-15T14:06:20;0.00;0.00;0.00
73825;PMS5003;64145;55.060;73.168;2022-11-15T14:11:59;0.00;0.00;0.00
73825;PMS5003;64145;55.060;73.168;2022-11-15T14:14:25;0.00;0.00;0.00
73825;PMS5003;64145;55.060;73.168;2022-11-15T14:16:55;0.00;0.00;0.00
73825;PMS5003;64145;55.060;73.168;2022-11-15T14:22:08;0.00;0.00;0.00
73825;PMS5003;64145;55.060;73.168;2022-11-15T14:24:45;0.00;0.00;0.00
73825;PMS5003;64145;55.060;73.168;2022-11-15T14:27:17;0.00;0.00;0.00
73825;PMS5003;64145;55.060;73.168;2022-11-15T14:29:43;0.00;0.00;0.00
73825;PMS5003;64145;55.060;73.168;2022-11-15T14:32:20;0.00;0.00;0.00
73825;PMS5003;64145;55.060;73.168;2022-11-15T14:34:47;0.00;0.00;0.00
73825;PMS5003;64145;55.060;73.168;2022-11-15T14:37:19;0.00;0.00;0.00
73825;PMS5003;64145;55.060;73.168;2022-11-15T14:39:45;0.00;0.00;0.00
73825;PMS5003;64145;55.060;73.168;2022-11-15T14:42:11;0.00;0.00;0.00
73825;PMS5003;64145;55.060;73.168;2022-11-15T14:44:36;0.00;0.00;0.00
73825;PMS5003;64145;55.060;73.168;2022-11-15T14:47:02;0.00;0.00;0.00
73825;PMS5003;64145;55.060;73.168;2022-11-15T14:49:27;0.00;0.00;0.00
73825;PMS5003;64145;55.060;73.168;2022-11-15T14:51:53;0.00;0.00;0.00
73825;PMS5003;64145;55.060;73.168;2022-11-15T14:54:18;0.00;0.00;0.00
73825;PMS5003;64145;55.060;73.168;2022-11-15T14:56:44;0.00;0.00;0.00
73825;PMS5003;64145;55.060;73.168;2022-11-15T14:59:14;0.00;0.00;0.00
73825;PMS5003;64145;55.060;73.168;2022-11-15T15:01:40;0.00;0.00;0.00
73825;PMS5003;64145;55.060;73.168;2022-11-15T15:04:16;0.00;0.00;0.00
73825;PMS5003;64145;55.060;73.168;2022-11-15T15:06:51;0.00;0.00;0.00
73825;PMS5003;64145;55.060;73.168;2022-11-15T15:09:17;0.00;0.00;0.00
73825;PMS5003;64145;55.060;73.168;2022-11-15T15:11:42;0.00;0.00;0.00
73825;PMS5003;64145;55.060;73.168;2022-11-15T15:14:09;0.00;0.00;0.00
73825;PMS5003;64145;55.060;73.168;2022-11-15T15:16:44;0.00;0.00;0.00
73825;PMS5003;64145;55.060;73.168;2022-11-15T15:19:10;0.00;0.00;0.00
73825;PMS5003;64145;55.060;73.168;2022-11-15T15:21:35;0.00;0.00;0.00
73825;PMS5003;64145;55.060;73.168;2022-11-15T15:24:01;0.00;0.00;0.00
73825;PMS5003;64145;55.060;73.168;2022-11-15T15:26:32;0.00;0.00;0.00
73825;PMS5003;64145;55.060;73.168;2022-11-15T15:29:01;0.00;0.00;0.00
73825;PMS5003;64145;55.060;73.168;2022-11-15T15:31:26;0.00;0.00;0.00
73825;PMS5003;64145;55.060;73.168;2022-11-15T15:34:02;0.00;0.00;0.00
73825;PMS5003;64145;55.060;73.168;2022-11-15T15:36:28;0.00;0.00;0.00
73825;PMS5003;64145;55.060;73.168;2022-11-15T15:38:53;0.00;0.00;0.00
73825;PMS5003;64145;55.060;73.168;2022-11-15T15:41:24;0.00;0.00;0.00
73825;PMS5003;64145;55.060;73.168;2022-11-15T15:43:49;0.00;0.00;0.00
73825;PMS5003;64145;55.060;73.168;2022-11-15T15:46:16;0.00;0.00;0.00
73825;PMS5003;64145;55.060;73.168;2022-11-15T15:48:42;0.00;0.00;0.00
73825;PMS5003;64145;55.060;73.168;2022-11-15T15:51:08;0.00;0.00;0.00
73825;PMS5003;64145;55.060;73.168;2022-11-15T15:53:43;0.00;0.00;0.00
73825;PMS5003;64145;55.060;73.168;2022-11-15T15:56:08;0.00;0.00;0.00
73825;PMS5003;64145;55.060;73.168;2022-11-15T15:58:34;0.00;0.00;0.00
73825;PMS5003;64145;55.060;73.168;2022-11-15T16:01:00;0.00;0.00;0.00
73825;PMS5003;64145;55.060;73.168;2022-11-15T16:03:29;0.00;0.00;0.00
73825;PMS5003;64145;55.060;73.168;2022-11-15T16:05:54;0.00;0.00;0.00
73825;PMS5003;64145;55.060;73.168;2022-11-15T16:08:21;0.00;0.00;0.00
73825;PMS5003;64145;55.060;73.168;2022-11-15T16:10:47;0.00;0.00;0.00
73825;PMS5003;64145;55.060;73.168;2022-11-15T16:13:18;0.00;0.00;0.00
73825;PMS5003;64145;55.060;73.168;2022-11-15T16:15:55;0.00;0.00;0.00
73825;PMS5003;64145;55.060;73.168;2022-11-15T16:18:20;0.00;0.00;0.00
73825;PMS5003;64145;55.060;73.168;2022-11-15T16:20:47;0.00;0.00;0.00
73825;PMS5003;64145;55.060;73.168;2022-11-15T16:23:15;0.00;0.00;0.00
73825;PMS5003;64145;55.060;73.168;2022-11-15T16:25:42;0.00;0.00;0.00